sensor_id;sensor_type;location;lat;lon;timestamp;temperature;humidity
21267;DHT22;10791;53.108;18.326;2023-02-22T00:00:37;3.80;99.90
21267;DHT22;10791;53.108;18.326;2023-02-22T00:05:56;3.70;99.90
21267;DHT22;10791;53.108;18.326;2023-02-22T00:11:04;3.60;99.90
21267;DHT22;10791;53.108;18.326;2023-02-22T00:16:19;3.50;99.90
21267;DHT22;10791;53.108;18.326;2023-02-22T00:21:23;3.40;99.90
21267;DHT22;10791;53.108;18.326;2023-02-22T00:26:26;3.30;99.90
21267;DHT22;10791;53.108;18.326;2023-02-22T00:31:29;3.20;99.90
21267;DHT22;10791;53.108;18.326;2023-02-22T00:36:33;3.00;99.90
21267;DHT22;10791;53.108;18.326;2023-02-22T00:41:37;3.00;99.90
21267;DHT22;10791;53.108;18.326;2023-02-22T00:46:40;2.80;99.90
21267;DHT22;10791;53.108;18.326;2023-02-22T00:51:44;2.80;99.90
21267;DHT22;10791;53.108;18.326;2023-02-22T00:56:47;2.70;99.90
21267;DHT22;10791;53.108;18.326;2023-02-22T01:01:52;2.60;99.90
21267;DHT22;10791;53.108;18.326;2023-02-22T01:06:56;2.50;99.90
21267;DHT22;10791;53.108;18.326;2023-02-22T01:12:02;2.40;99.90
21267;DHT22;10791;53.108;18.326;2023-02-22T01:17:07;2.30;99.90
21267;DHT22;10791;53.108;18.326;2023-02-22T01:22:11;2.10;99.90
21267;DHT22;10791;53.108;18.326;2023-02-22T01:27:16;2.00;99.90
21267;DHT22;10791;53.108;18.326;2023-02-22T01:32:19;1.90;99.90
21267;DHT22;10791;53.108;18.326;2023-02-22T01:37:22;1.80;99.90
21267;DHT22;10791;53.108;18.326;2023-02-22T01:42:26;1.60;99.90
21267;DHT22;10791;53.108;18.326;2023-02-22T01:47:31;1.50;99.90
21267;DHT22;10791;53.108;18.326;2023-02-22T01:52:36;1.40;99.90
21267;DHT22;10791;53.108;18.326;2023-02-22T01:57:40;1.30;99.90
21267;DHT22;10791;53.108;18.326;2023-02-22T02:02:46;1.20;99.90
21267;DHT22;10791;53.108;18.326;2023-02-22T02:07:51;1.10;99.90
21267;DHT22;10791;53.108;18.326;2023-02-22T02:12:56;1.10;99.90
21267;DHT22;10791;53.108;18.326;2023-02-22T02:18:04;0.90;99.90
21267;DHT22;10791;53.108;18.326;2023-02-22T02:34:12;0.70;99.90
21267;DHT22;10791;53.108;18.326;2023-02-22T02:39:44;0.60;99.90
21267;DHT22;10791;53.108;18.326;2023-02-22T02:44:57;0.50;99.90
21267;DHT22;10791;53.108;18.326;2023-02-22T02:50:13;0.40;99.90
21267;DHT22;10791;53.108;18.326;2023-02-22T02:55:18;0.40;99.90
21267;DHT22;10791;53.108;18.326;2023-02-22T03:00:25;0.40;99.90
21267;DHT22;10791;53.108;18.326;2023-02-22T03:10:52;0.50;99.90
21267;DHT22;10791;53.108;18.326;2023-02-22T03:16:52;0.50;99.90
21267;DHT22;10791;53.108;18.326;2023-02-22T03:22:20;0.40;99.90
21267;DHT22;10791;53.108;18.326;2023-02-22T03:27:32;0.40;99.90
21267;DHT22;10791;53.108;18.326;2023-02-22T03:32:41;0.30;99.90
21267;DHT22;10791;53.108;18.326;2023-02-22T03:37:52;0.20;99.90
21267;DHT22;10791;53.108;18.326;2023-02-22T03:43:17;0.10;99.90
21267;DHT22;10791;53.108;18.326;2023-02-22T03:53:34;0.10;99.90
21267;DHT22;10791;53.108;18.326;2023-02-22T03:58:42;0.00;99.90
21267;DHT22;10791;53.108;18.326;2023-02-22T04:03:47;-0.10;99.90
21267;DHT22;10791;53.108;18.326;2023-02-22T04:08:50;-0.20;99.90
21267;DHT22;10791;53.108;18.326;2023-02-22T04:13:54;-0.20;99.90
21267;DHT22;10791;53.108;18.326;2023-02-22T04:18:58;-0.30;99.90
21267;DHT22;10791;53.108;18.326;2023-02-22T04:24:01;-0.40;99.90
21267;DHT22;10791;53.108;18.326;2023-02-22T04:29:04;-0.40;99.90
21267;DHT22;10791;53.108;18.326;2023-02-22T04:34:08;-0.50;99.90
21267;DHT22;10791;53.108;18.326;2023-02-22T04:39:11;-0.60;99.90
21267;DHT22;10791;53.108;18.326;2023-02-22T04:44:14;-0.60;99.90
21267;DHT22;10791;53.108;18.326;2023-02-22T04:49:18;-0.60;99.90
21267;DHT22;10791;53.108;18.326;2023-02-22T04:54:21;-0.60;99.90
21267;DHT22;10791;53.108;18.326;2023-02-22T04:59:25;-0.70;99.90
21267;DHT22;10791;53.108;18.326;2023-02-22T05:04:50;-0.80;99.90
21267;DHT22;10791;53.108;18.326;2023-02-22T05:09:54;-0.80;99.90
21267;DHT22;10791;53.108;18.326;2023-02-22T05:14:57;-0.90;99.90
21267;DHT22;10791;53.108;18.326;2023-02-22T05:20:01;-0.90;99.90
21267;DHT22;10791;53.108;18.326;2023-02-22T05:25:05;-0.90;99.90
21267;DHT22;10791;53.108;18.326;2023-02-22T05:30:10;-1.00;99.90
21267;DHT22;10791;53.108;18.326;2023-02-22T05:35:14;-1.00;99.90
21267;DHT22;10791;53.108;18.326;2023-02-22T05:40:19;-1.10;99.90
21267;DHT22;10791;53.108;18.326;2023-02-22T05:45:25;-1.10;99.90
21267;DHT22;10791;53.108;18.326;2023-02-22T05:50:29;-1.10;99.90
21267;DHT22;10791;53.108;18.326;2023-02-22T05:55:32;-1.10;99.90
21267;DHT22;10791;53.108;18.326;2023-02-22T06:00:35;-1.20;99.90
21267;DHT22;10791;53.108;18.326;2023-02-22T06:05:39;-1.20;99.90
21267;DHT22;10791;53.108;18.326;2023-02-22T06:10:43;-1.20;99.90
21267;DHT22;10791;53.108;18.326;2023-02-22T06:15:46;-1.10;99.90
21267;DHT22;10791;53.108;18.326;2023-02-22T06:20:50;-1.10;99.90
21267;DHT22;10791;53.108;18.326;2023-02-22T06:25:53;-1.10;99.90
21267;DHT22;10791;53.108;18.326;2023-02-22T06:30:56;-1.00;99.90
21267;DHT22;10791;53.108;18.326;2023-02-22T06:36:00;-1.00;99.90
21267;DHT22;10791;53.108;18.326;2023-02-22T06:41:03;-1.00;99.90
21267;DHT22;10791;53.108;18.326;2023-02-22T06:46:10;-0.90;99.90
21267;DHT22;10791;53.108;18.326;2023-02-22T06:51:15;-0.80;99.90
21267;DHT22;10791;53.108;18.326;2023-02-22T06:56:19;-0.70;99.90
21267;DHT22;10791;53.108;18.326;2023-02-22T07:01:22;-0.60;99.90
21267;DHT22;10791;53.108;18.326;2023-02-22T07:06:26;-0.50;99.90
21267;DHT22;10791;53.108;18.326;2023-02-22T07:11:29;-0.40;99.90
21267;DHT22;10791;53.108;18.326;2023-02-22T07:16:33;-0.30;99.90
21267;DHT22;10791;53.108;18.326;2023-02-22T07:21:36;-0.10;99.90
21267;DHT22;10791;53.108;18.326;2023-02-22T07:26:41;0.00;99.90
21267;DHT22;10791;53.108;18.326;2023-02-22T07:31:44;0.10;99.90
21267;DHT22;10791;53.108;18.326;2023-02-22T07:36:48;0.20;99.90
21267;DHT22;10791;53.108;18.326;2023-02-22T07:41:52;0.40;99.90
21267;DHT22;10791;53.108;18.326;2023-02-22T07:46:55;0.50;99.90
21267;DHT22;10791;53.108;18.326;2023-02-22T07:51:59;0.70;99.90
21267;DHT22;10791;53.108;18.326;2023-02-22T07:57:03;0.80;99.90
21267;DHT22;10791;53.108;18.326;2023-02-22T08:02:12;1.00;99.90
21267;DHT22;10791;53.108;18.326;2023-02-22T08:07:17;1.20;99.90
21267;DHT22;10791;53.108;18.326;2023-02-22T08:12:20;1.30;99.90
21267;DHT22;10791;53.108;18.326;2023-02-22T08:17:24;1.50;99.90
21267;DHT22;10791;53.108;18.326;2023-02-22T08:22:27;1.60;99.90
21267;DHT22;10791;53.108;18.326;2023-02-22T08:27:31;1.80;99.90
21267;DHT22;10791;53.108;18.326;2023-02-22T08:32:35;2.00;99.90
21267;DHT22;10791;53.108;18.326;2023-02-22T08:37:47;2.00;99.90
21267;DHT22;10791;53.108;18.326;2023-02-22T08:42:51;2.10;99.90
21267;DHT22;10791;53.108;18.326;2023-02-22T08:47:54;2.30;99.90
21267;DHT22;10791;53.108;18.326;2023-02-22T08:52:59;2.40;99.90
21267;DHT22;10791;53.108;18.326;2023-02-22T08:58:04;2.60;99.90
21267;DHT22;10791;53.108;18.326;2023-02-22T09:03:13;2.70;99.90
21267;DHT22;10791;53.108;18.326;2023-02-22T09:08:19;2.80;99.90
21267;DHT22;10791;53.108;18.326;2023-02-22T09:13:22;2.80;99.90
21267;DHT22;10791;53.108;18.326;2023-02-22T09:18:27;2.80;99.90
21267;DHT22;10791;53.108;18.326;2023-02-22T09:23:46;2.80;99.90
21267;DHT22;10791;53.108;18.326;2023-02-22T09:28:51;2.90;99.90
21267;DHT22;10791;53.108;18.326;2023-02-22T09:33:54;2.90;99.90
21267;DHT22;10791;53.108;18.326;2023-02-22T09:38:58;2.80;99.90
21267;DHT22;10791;53.108;18.326;2023-02-22T09:49:16;2.90;99.90
21267;DHT22;10791;53.108;18.326;2023-02-22T09:59:40;3.50;99.90
21267;DHT22;10791;53.108;18.326;2023-02-22T10:09:57;3.50;99.90
21267;DHT22;10791;53.108;18.326;2023-02-22T10:25:27;3.40;99.90
21267;DHT22;10791;53.108;18.326;2023-02-22T10:30:38;3.50;99.90
21267;DHT22;10791;53.108;18.326;2023-02-22T10:35:44;3.50;99.90
21267;DHT22;10791;53.108;18.326;2023-02-22T10:41:25;3.80;99.90
21267;DHT22;10791;53.108;18.326;2023-02-22T10:46:31;4.10;99.90
21267;DHT22;10791;53.108;18.326;2023-02-22T10:51:35;4.30;99.90
21267;DHT22;10791;53.108;18.326;2023-02-22T10:56:49;4.70;99.90
21267;DHT22;10791;53.108;18.326;2023-02-22T11:01:54;4.70;99.90
21267;DHT22;10791;53.108;18.326;2023-02-22T11:12:15;4.50;99.90
21267;DHT22;10791;53.108;18.326;2023-02-22T11:17:30;4.50;99.90
21267;DHT22;10791;53.108;18.326;2023-02-22T11:22:40;4.60;99.90
21267;DHT22;10791;53.108;18.326;2023-02-22T11:27:44;4.70;99.90
21267;DHT22;10791;53.108;18.326;2023-02-22T11:32:59;4.60;99.90
21267;DHT22;10791;53.108;18.326;2023-02-22T11:38:37;4.60;99.90
21267;DHT22;10791;53.108;18.326;2023-02-22T11:43:47;4.50;99.90
21267;DHT22;10791;53.108;18.326;2023-02-22T11:49:11;4.30;99.90
21267;DHT22;10791;53.108;18.326;2023-02-22T11:54:28;4.30;99.90
21267;DHT22;10791;53.108;18.326;2023-02-22T12:05:36;4.20;99.90
21267;DHT22;10791;53.108;18.326;2023-02-22T12:11:01;4.20;99.90
21267;DHT22;10791;53.108;18.326;2023-02-22T12:21:23;4.90;99.90
21267;DHT22;10791;53.108;18.326;2023-02-22T12:26:47;4.90;99.70
21267;DHT22;10791;53.108;18.326;2023-02-22T12:32:03;4.90;99.70
21267;DHT22;10791;53.108;18.326;2023-02-22T12:37:15;4.90;99.70
21267;DHT22;10791;53.108;18.326;2023-02-22T12:42:32;4.80;99.90
21267;DHT22;10791;53.108;18.326;2023-02-22T12:47:55;4.50;99.90
21267;DHT22;10791;53.108;18.326;2023-02-22T12:53:42;4.30;99.90
21267;DHT22;10791;53.108;18.326;2023-02-22T12:59:04;4.20;99.90
21267;DHT22;10791;53.108;18.326;2023-02-22T13:04:11;4.30;99.90
21267;DHT22;10791;53.108;18.326;2023-02-22T13:09:54;4.20;99.90
21267;DHT22;10791;53.108;18.326;2023-02-22T13:20:40;4.00;99.90
21267;DHT22;10791;53.108;18.326;2023-02-22T13:26:39;4.00;99.90
21267;DHT22;10791;53.108;18.326;2023-02-22T13:31:30;4.20;99.90
21267;DHT22;10791;53.108;18.326;2023-02-22T13:42:25;4.40;99.90
21267;DHT22;10791;53.108;18.326;2023-02-22T13:53:11;4.90;99.90
21267;DHT22;10791;53.108;18.326;2023-02-22T13:58:17;5.30;99.40
21267;DHT22;10791;53.108;18.326;2023-02-22T14:24:17;5.40;97.40
21267;DHT22;10791;53.108;18.326;2023-02-22T14:29:21;5.10;97.90
21267;DHT22;10791;53.108;18.326;2023-02-22T14:39:57;4.40;99.90
21267;DHT22;10791;53.108;18.326;2023-02-22T14:55:56;4.00;99.90
21267;DHT22;10791;53.108;18.326;2023-02-22T15:06:24;3.90;99.90
21267;DHT22;10791;53.108;18.326;2023-02-22T15:11:30;3.80;99.90
21267;DHT22;10791;53.108;18.326;2023-02-22T15:16:38;3.70;99.90
21267;DHT22;10791;53.108;18.326;2023-02-22T15:21:45;3.60;99.90
21267;DHT22;10791;53.108;18.326;2023-02-22T15:26:48;3.50;99.90
21267;DHT22;10791;53.108;18.326;2023-02-22T15:32:31;3.40;99.90
21267;DHT22;10791;53.108;18.326;2023-02-22T15:37:35;3.40;99.90
21267;DHT22;10791;53.108;18.326;2023-02-22T15:42:52;3.40;99.90
21267;DHT22;10791;53.108;18.326;2023-02-22T15:48:00;3.40;99.90
21267;DHT22;10791;53.108;18.326;2023-02-22T15:53:07;3.30;99.90
21267;DHT22;10791;53.108;18.326;2023-02-22T15:58:20;3.30;99.90
21267;DHT22;10791;53.108;18.326;2023-02-22T16:03:25;3.30;99.90
21267;DHT22;10791;53.108;18.326;2023-02-22T16:08:46;3.20;99.90
21267;DHT22;10791;53.108;18.326;2023-02-22T16:14:03;3.10;99.90
21267;DHT22;10791;53.108;18.326;2023-02-22T16:19:27;3.10;99.90
21267;DHT22;10791;53.108;18.326;2023-02-22T16:24:35;3.00;99.90
21267;DHT22;10791;53.108;18.326;2023-02-22T16:29:40;2.90;99.90
21267;DHT22;10791;53.108;18.326;2023-02-22T16:34:49;2.90;99.90
21267;DHT22;10791;53.108;18.326;2023-02-22T16:39:53;2.80;99.90
21267;DHT22;10791;53.108;18.326;2023-02-22T16:45:02;2.80;99.90
21267;DHT22;10791;53.108;18.326;2023-02-22T16:50:06;2.70;99.90
21267;DHT22;10791;53.108;18.326;2023-02-22T16:55:12;2.70;99.90
21267;DHT22;10791;53.108;18.326;2023-02-22T17:00:20;2.70;99.90
21267;DHT22;10791;53.108;18.326;2023-02-22T17:05:34;2.70;99.90
21267;DHT22;10791;53.108;18.326;2023-02-22T17:10:39;2.60;99.90
21267;DHT22;10791;53.108;18.326;2023-02-22T17:15:44;2.50;99.90
21267;DHT22;10791;53.108;18.326;2023-02-22T17:20:51;2.50;99.90
21267;DHT22;10791;53.108;18.326;2023-02-22T17:26:00;2.50;99.90
21267;DHT22;10791;53.108;18.326;2023-02-22T17:31:06;2.50;99.90
21267;DHT22;10791;53.108;18.326;2023-02-22T17:36:10;2.50;99.90
21267;DHT22;10791;53.108;18.326;2023-02-22T17:41:16;2.40;99.90
21267;DHT22;10791;53.108;18.326;2023-02-22T17:46:21;2.40;99.90
21267;DHT22;10791;53.108;18.326;2023-02-22T17:51:28;2.40;99.90
21267;DHT22;10791;53.108;18.326;2023-02-22T17:56:32;2.40;99.90
21267;DHT22;10791;53.108;18.326;2023-02-22T18:01:38;2.40;99.90
21267;DHT22;10791;53.108;18.326;2023-02-22T18:06:44;2.40;99.90
21267;DHT22;10791;53.108;18.326;2023-02-22T18:11:49;2.40;99.90
21267;DHT22;10791;53.108;18.326;2023-02-22T18:16:55;2.40;99.90
21267;DHT22;10791;53.108;18.326;2023-02-22T18:22:00;2.30;99.90
21267;DHT22;10791;53.108;18.326;2023-02-22T18:27:07;2.30;99.90
21267;DHT22;10791;53.108;18.326;2023-02-22T18:32:16;2.30;99.90
21267;DHT22;10791;53.108;18.326;2023-02-22T18:37:21;2.30;99.90
21267;DHT22;10791;53.108;18.326;2023-02-22T18:42:27;2.20;99.90
21267;DHT22;10791;53.108;18.326;2023-02-22T18:47:41;2.20;99.90
21267;DHT22;10791;53.108;18.326;2023-02-22T18:52:47;2.20;99.90
21267;DHT22;10791;53.108;18.326;2023-02-22T18:57:53;2.10;99.90
21267;DHT22;10791;53.108;18.326;2023-02-22T19:03:04;2.10;99.90
21267;DHT22;10791;53.108;18.326;2023-02-22T19:08:12;2.10;99.90
21267;DHT22;10791;53.108;18.326;2023-02-22T19:13:17;2.10;99.90
21267;DHT22;10791;53.108;18.326;2023-02-22T19:18:25;2.10;99.90
21267;DHT22;10791;53.108;18.326;2023-02-22T19:23:31;2.00;99.90
21267;DHT22;10791;53.108;18.326;2023-02-22T19:28:39;2.00;99.90
21267;DHT22;10791;53.108;18.326;2023-02-22T19:33:45;2.10;99.90
21267;DHT22;10791;53.108;18.326;2023-02-22T19:38:57;2.00;99.90
21267;DHT22;10791;53.108;18.326;2023-02-22T19:44:06;2.00;99.90
21267;DHT22;10791;53.108;18.326;2023-02-22T19:49:12;2.00;99.90
21267;DHT22;10791;53.108;18.326;2023-02-22T19:54:18;2.00;99.90
21267;DHT22;10791;53.108;18.326;2023-02-22T19:59:27;1.90;99.90
21267;DHT22;10791;53.108;18.326;2023-02-22T20:04:34;2.00;99.90
21267;DHT22;10791;53.108;18.326;2023-02-22T20:09:45;1.90;99.90
21267;DHT22;10791;53.108;18.326;2023-02-22T20:14:51;1.90;99.90
21267;DHT22;10791;53.108;18.326;2023-02-22T20:19:57;1.80;99.90
21267;DHT22;10791;53.108;18.326;2023-02-22T20:25:05;1.80;99.90
21267;DHT22;10791;53.108;18.326;2023-02-22T20:30:13;1.70;99.90
21267;DHT22;10791;53.108;18.326;2023-02-22T20:35:27;1.70;99.90
21267;DHT22;10791;53.108;18.326;2023-02-22T20:40:44;1.60;99.90
21267;DHT22;10791;53.108;18.326;2023-02-22T20:45:51;1.50;99.90
21267;DHT22;10791;53.108;18.326;2023-02-22T20:51:11;1.40;99.90
21267;DHT22;10791;53.108;18.326;2023-02-22T20:56:22;1.40;99.90
21267;DHT22;10791;53.108;18.326;2023-02-22T21:01:34;1.40;99.90
21267;DHT22;10791;53.108;18.326;2023-02-22T21:06:47;1.30;99.90
21267;DHT22;10791;53.108;18.326;2023-02-22T21:11:54;1.30;99.90
21267;DHT22;10791;53.108;18.326;2023-02-22T21:17:05;1.20;99.90
21267;DHT22;10791;53.108;18.326;2023-02-22T21:22:14;1.20;99.90
21267;DHT22;10791;53.108;18.326;2023-02-22T21:27:23;1.10;99.90
21267;DHT22;10791;53.108;18.326;2023-02-22T21:32:31;1.00;99.90
21267;DHT22;10791;53.108;18.326;2023-02-22T21:37:44;0.90;99.90
21267;DHT22;10791;53.108;18.326;2023-02-22T21:42:55;0.90;99.90
21267;DHT22;10791;53.108;18.326;2023-02-22T21:48:01;0.80;99.90
21267;DHT22;10791;53.108;18.326;2023-02-22T21:53:08;0.80;99.90
21267;DHT22;10791;53.108;18.326;2023-02-22T21:58:14;0.80;99.90
21267;DHT22;10791;53.108;18.326;2023-02-22T22:03:20;0.70;99.90
21267;DHT22;10791;53.108;18.326;2023-02-22T22:08:24;0.60;99.90
21267;DHT22;10791;53.108;18.326;2023-02-22T22:13:29;0.50;99.90
21267;DHT22;10791;53.108;18.326;2023-02-22T22:18:37;0.40;99.90
21267;DHT22;10791;53.108;18.326;2023-02-22T22:23:43;0.40;99.90
21267;DHT22;10791;53.108;18.326;2023-02-22T22:28:57;0.40;99.90
21267;DHT22;10791;53.108;18.326;2023-02-22T22:34:00;0.30;99.90
21267;DHT22;10791;53.108;18.326;2023-02-22T22:39:04;0.20;99.90
21267;DHT22;10791;53.108;18.326;2023-02-22T22:44:17;0.20;99.90
21267;DHT22;10791;53.108;18.326;2023-02-22T22:49:24;0.10;99.90
21267;DHT22;10791;53.108;18.326;2023-02-22T22:54:30;0.00;99.90
21267;DHT22;10791;53.108;18.326;2023-02-22T22:59:33;0.00;99.90
21267;DHT22;10791;53.108;18.326;2023-02-22T23:04:36;-0.10;99.90
21267;DHT22;10791;53.108;18.326;2023-02-22T23:09:40;-0.20;99.90
21267;DHT22;10791;53.108;18.326;2023-02-22T23:14:44;-0.20;99.90
21267;DHT22;10791;53.108;18.326;2023-02-22T23:19:48;-0.30;99.90
21267;DHT22;10791;53.108;18.326;2023-02-22T23:24:51;-0.30;99.90
21267;DHT22;10791;53.108;18.326;2023-02-22T23:29:56;-0.30;99.90
21267;DHT22;10791;53.108;18.326;2023-02-22T23:34:59;-0.30;99.90
21267;DHT22;10791;53.108;18.326;2023-02-22T23:40:08;-0.40;99.90
21267;DHT22;10791;53.108;18.326;2023-02-22T23:45:19;-0.40;99.90
21267;DHT22;10791;53.108;18.326;2023-02-22T23:50:29;-0.40;99.90
21267;DHT22;10791;53.108;18.326;2023-02-22T23:55:32;-0.40;99.90
